Flight Track Log - Related Links

Times and Time Zones

All times are in EDT time to prevent confusion due to time zone crossing. See the UPS1111 flight status page for this flight to view local times or setup timezone preferences in your user account.

Time Position Orientation Groundspeed Altitude Reporting Facility
EDT Latitude Longitude Course Direction KTS MPH feet Rate Location/Type
Mon 11:02:01 PM 40.6500 -73.7980 196° South 32 37  Level FlightAware ADS-B
Mon 11:03:23 PM 40.6440 -73.7960 166° South 34 39 50 Level FlightAware ADS-B
Mon 11:03:49 PM 40.6420 -73.7960 180° South 17 20 54 Level FlightAware ADS-B
Mon 11:04:20 PM 40.6400 -73.7950 159° South 18 21 55 Level FlightAware ADS-B
Mon 11:04:34 PM 40.6390 -73.7940 143° Southeast 20 23 56 Level FlightAware ADS-B
Mon 11:05:01 PM 40.6380 -73.7910 114° Southeast 33 38 57 Level FlightAware ADS-B
Mon 11:05:30 PM 40.6370 -73.7890 123° Southeast 15 17 59 Level FlightAware ADS-B
Mon 11:05:58 PM 40.6360 -73.7870 123° Southeast 33 38 60 Level FlightAware ADS-B
Mon 11:06:13 PM 40.6360 -73.7860 90° East 16 18 62 Level FlightAware ADS-B
Mon 11:06:41 PM 40.6350 -73.7840 123° Southeast 31 36 63 Level FlightAware ADS-B
Mon 11:07:03 PM 40.6340 -73.7820 123° Southeast 2 2 65 Level FlightAware ADS-B
Mon 11:08:19 PM 40.6330 -73.7810 143° Southeast 29 33 67 Level FlightAware ADS-B
Mon 11:08:31 PM 40.6330 -73.7800 90° East 31 36 73 Level FlightAware ADS-B
Mon 11:09:13 PM 40.6330 -73.7790 90° East 74 Level FlightAware ADS-B
Mon 11:10:21 PM 40.6340 -73.7790 360° North 16 18 78 Level FlightAware ADS-B
Mon 11:11:20 PM 40.6350 -73.7770 57° Northeast 23 26 86 Level FlightAware ADS-B
Mon 11:11:48 PM 40.6360 -73.7770 360° North 23 26 93 Level FlightAware ADS-B
Mon 11:12:11 PM 40.6360 -73.7760 90° East 19 22 98 Level FlightAware ADS-B
Mon 11:12:45 PM 40.6360 -73.7740 90° East 27 31 102 Level FlightAware ADS-B
Mon 11:13:26 PM 40.6340 -73.7710 131° Southeast 34 39 108 Level FlightAware ADS-B
Mon 11:13:54 PM 40.6340 -73.7700 90° East 16 18 116 Level FlightAware ADS-B
Mon 11:15:27 PM 40.6330 -73.7690 143° Southeast 25 29 123 Level FlightAware ADS-B
Mon 11:16:02 PM 40.6320 -73.7700 217° Southwest 18 21 152 Level FlightAware ADS-B
Mon 11:18:00 PM 40.4894 -73.9939 217° Southwest  Level FlightAware Approximate
Mon 11:18:05 PM 40.6300 -73.7700 217° Southwest 2 2  Level FlightAware ADS-B
Mon 11:18:48 PM 40.6300 -73.7710 270° West 19 22 253 Level FlightAware ADS-B
Mon 11:19:10 PM 40.6290 -73.7710 180° South 21 24 309 Level FlightAware ADS-B
Mon 11:20:11 PM 40.6280 -73.7720 217° Southwest 24 28 349 Level FlightAware ADS-B
Mon 11:21:22 PM 40.6290 -73.7750 294° West 66 76 541 Level FlightAware ADS-B
Mon 11:21:34 PM 40.6320 -73.7810 303° West 130 150 1,500 Level FlightAware ADS-B
Mon 11:22:02 PM 40.6420 -73.8030 301° West 152 175 1,000 2,000 Climbing FlightAware ADS-B
Mon 11:22:16 PM 40.6440 -73.8140 283° West 156 180 1,400 1,304 Climbing FlightAware ADS-B
Mon 11:22:48 PM 40.6320 -73.8480 245° Southwest 208 239 2,000 1,745 Climbing FlightAware ADS-B
Mon 11:23:11 PM 40.6210 -73.8740 241° Southwest 221 254 3,000 2,308 Climbing FlightAware ADS-B
Mon 11:23:27 PM 40.6120 -73.8920 237° Southwest 237 273 3,500 2,063 Climbing FlightAware ADS-B
Mon 11:23:43 PM 40.5970 -73.9070 217° Southwest 258 297 4,100 1,814 Climbing FlightAware ADS-B
Mon 11:24:10 PM 40.5690 -73.9300 212° Southwest 268 308 4,800 2,000 Climbing FlightAware ADS-B
Mon 11:24:40 PM 40.5370 -73.9560 212° Southwest 272 313 6,000 2,714 Climbing FlightAware ADS-B
Mon 11:24:52 PM 40.5230 -73.9670 211° Southwest 274 315 6,700 2,850 Climbing FlightAware ADS-B
Mon 11:25:20 PM 40.4950 -73.9900 212° Southwest 280 322 7,900 2,893 Climbing FlightAware ADS-B
Mon 11:25:48 PM 40.4620 -74.0180 213° Southwest 286 329 9,400 2,559 Climbing FlightAware ADS-B
Mon 11:26:28 PM 40.4150 -74.0560 212° Southwest 314 361 10,800 1,556 Climbing FlightAware ADS-B
Mon 11:27:09 PM 40.3610 -74.1030 214° Southwest 371 427 11,500 1,857 Climbing FlightAware ADS-B
Mon 11:27:52 PM 40.3190 -74.1840 236° Southwest 399 459 13,400 3,035 Climbing FlightAware ADS-B
Mon 11:28:34 PM 40.2840 -74.2780 244° Southwest 415 478 15,800 2,442 Climbing FlightAware ADS-B
Mon 11:29:18 PM 40.2450 -74.3820 244° Southwest 424 488 16,900 767 Climbing FlightAware ADS-B
Mon 11:30:00 PM 40.2100 -74.4790 245° Southwest 420 483 16,900  Level FlightAware ADS-B
Mon 11:30:40 PM 40.1960 -74.5750 259° West 421 484 16,900 1,357 Level FlightAware ADS-B
Mon 11:31:24 PM 40.1870 -74.6870 264° West 431 496 18,800 2,643 Climbing FlightAware ADS-B
Mon 11:32:04 PM 40.1790 -74.7930 264° West 445 512 20,600 2,625 Climbing FlightAware ADS-B
Mon 11:32:44 PM 40.1700 -74.9020 264° West 459 528 22,300 2,400 Climbing FlightAware ADS-B
Mon 11:33:29 PM 40.1600 -75.0300 264° West 473 544 24,000 2,259 Climbing FlightAware ADS-B
Mon 11:34:09 PM 40.1500 -75.1450 264° West 483 556 25,500 2,093 Climbing FlightAware ADS-B
Mon 11:34:55 PM 40.1370 -75.2800 263° West 496 571 27,000 2,093 Climbing FlightAware ADS-B
Mon 11:35:35 PM 40.1120 -75.3970 254° West 502 578 28,500 2,475 Climbing FlightAware ADS-B
Mon 11:36:15 PM 40.0810 -75.5090 250° West 495 570 30,300 2,400 Climbing FlightAware ADS-B
Mon 11:37:00 PM 40.0470 -75.6290 250° West 491 565 31,900 2,093 Climbing FlightAware ADS-B
Mon 11:37:41 PM 40.0130 -75.7470 249° West 489 563 33,300 1,857 Climbing FlightAware ADS-B
Mon 11:38:24 PM 39.9790 -75.8660 250° West 488 562 34,500 1,553 Climbing FlightAware ADS-B
Mon 11:39:06 PM 39.9460 -75.9810 250° West 487 560 35,500 1,059 Climbing FlightAware ADS-B
Mon 11:39:49 PM 39.9120 -76.0970 249° West 491 565 36,000 361 Climbing FlightAware ADS-B
Mon 11:40:29 PM 39.8790 -76.2110 249° West 492 566 36,000  Level FlightAware ADS-B
Mon 11:41:12 PM 39.8440 -76.3290 249° West 493 567 36,000  Level FlightAware ADS-B
Mon 11:41:52 PM 39.8130 -76.4370 250° West 494 568 36,000  Level FlightAware ADS-B
Mon 11:42:36 PM 39.7760 -76.5600 249° West 492 566 36,000  Level FlightAware ADS-B
Mon 11:43:15 PM 39.7450 -76.6670 249° West 491 565 36,000  Level FlightAware ADS-B
Mon 11:43:58 PM 39.7090 -76.7870 249° West 492 566 36,000  Level FlightAware ADS-B
Mon 11:44:42 PM 39.6730 -76.9050 248° West 492 566 36,000  Level FlightAware ADS-B
Mon 11:45:21 PM 39.6410 -77.0150 249° West 493 567 36,000  Level FlightAware ADS-B
Mon 11:46:06 PM 39.6040 -77.1370 249° West 491 565 36,000  Level FlightAware ADS-B
Mon 11:46:49 PM 39.5680 -77.2530 248° West 492 566 36,000  Level FlightAware ADS-B
Mon 11:47:28 PM 39.5350 -77.3640 249° West 491 565 36,000  Level FlightAware ADS-B
Mon 11:48:12 PM 39.4980 -77.4840 248° West 491 565 36,000  Level FlightAware ADS-B
Mon 11:48:56 PM 39.4610 -77.6040 248° West 491 565 36,000  Level FlightAware ADS-B
Mon 11:49:34 PM 39.4290 -77.7080 248° West 491 565 36,000  Level FlightAware ADS-B
Mon 11:50:14 PM 39.3950 -77.8160 248° West 491 565 36,000  Level FlightAware ADS-B
Mon 11:51:00 PM 39.3510 -77.9360 245° Southwest 494 568 36,000  Level FlightAware ADS-B
Mon 11:51:42 PM 39.3060 -78.0480 243° Southwest 494 568 36,000  Level FlightAware ADS-B
Mon 11:52:27 PM 39.2610 -78.1630 243° Southwest 494 568 36,000  Level FlightAware ADS-B
Mon 11:53:08 PM 39.2170 -78.2720 243° Southwest 495 570 36,000  Level FlightAware ADS-B
Mon 11:53:46 PM 39.1770 -78.3700 242° Southwest 494 568 36,000  Level FlightAware ADS-B
Mon 11:54:30 PM 39.1310 -78.4860 243° Southwest 493 567 36,000  Level FlightAware ADS-B
Mon 11:55:10 PM 39.0890 -78.5890 242° Southwest 491 565 36,000  Level FlightAware ADS-B
Mon 11:55:56 PM 39.0420 -78.7090 243° Southwest 490 564 36,000  Level FlightAware ADS-B
Mon 11:56:36 PM 39.0110 -78.8180 250° West 487 560 36,000  Level FlightAware ADS-B
Mon 11:57:18 PM 38.9840 -78.9350 253° West 488 562 36,000  Level FlightAware ADS-B
Mon 11:58:02 PM 38.9560 -79.0580 254° West 489 563 36,000  Level FlightAware ADS-B
Mon 11:58:42 PM 38.9300 -79.1700 253° West 489 563 36,000  Level FlightAware ADS-B
Mon 11:59:26 PM 38.9020 -79.2910 253° West 490 564 36,000  Level FlightAware ADS-B
Tue 12:00:06 AM 38.8770 -79.4010 254° West 489 563 36,000  Level FlightAware ADS-B
Tue 12:00:48 AM 38.8490 -79.5180 253° West 488 562 36,000  Level FlightAware ADS-B
Tue 12:01:32 AM 38.8210 -79.6380 253° West 487 560 36,000  Level FlightAware ADS-B
Tue 12:02:12 AM 38.7950 -79.7510 254° West 487 560 36,000  Level FlightAware ADS-B
Tue 12:02:56 AM 38.7660 -79.8710 253° West 486 559 36,000  Level FlightAware ADS-B
Tue 12:03:37 AM 38.7390 -79.9830 253° West 486 559 36,000  Level FlightAware ADS-B
Tue 12:04:16 AM 38.7140 -80.0900 253° West 486 559 36,000  Level FlightAware ADS-B
Tue 12:05:02 AM 38.6830 -80.2180 253° West 486 559 36,000  Level FlightAware ADS-B
Tue 12:05:42 AM 38.6570 -80.3280 253° West 487 560 36,000  Level FlightAware ADS-B
Tue 12:06:27 AM 38.6270 -80.4490 252° West 486 559 36,000  Level FlightAware ADS-B
Tue 12:07:07 AM 38.6010 -80.5590 253° West 486 559 36,000  Level FlightAware ADS-B
Tue 12:07:44 AM 38.5750 -80.6630 252° West 485 558 36,000  Level FlightAware ADS-B
Tue 12:08:30 AM 38.5460 -80.7820 253° West 484 557 36,000  Level FlightAware ADS-B
Tue 12:09:12 AM 38.5170 -80.9000 253° West 483 556 36,000  Level FlightAware ADS-B
Tue 12:09:56 AM 38.4860 -81.0210 252° West 481 554 36,000  Level FlightAware ADS-B
Tue 12:10:39 AM 38.4570 -81.1370 252° West 481 554 36,000  Level FlightAware ADS-B
Tue 12:11:19 AM 38.4300 -81.2450 252° West 481 554 36,000  Level FlightAware ADS-B
Tue 12:11:59 AM 38.4040 -81.3510 253° West 473 544 36,000  Level FlightAware ADS-B
Tue 12:12:44 AM 38.3740 -81.4690 252° West 465 535 36,000  Level FlightAware ADS-B
Tue 12:13:20 AM 38.3500 -81.5630 252° West 466 536 36,000  Level FlightAware ADS-B
Tue 12:14:08 AM 38.3180 -81.6870 252° West 467 537 36,000  Level FlightAware ADS-B
Tue 12:14:48 AM 38.2910 -81.7930 252° West 469 540 36,000  Level FlightAware ADS-B
Tue 12:15:22 AM 38.2680 -81.8800 251° West 469 540 36,000  Level FlightAware ADS-B
Tue 12:16:06 AM 38.2380 -81.9980 252° West 470 541 36,000  Level FlightAware ADS-B
Tue 12:16:51 AM 38.2080 -82.1130 252° West 469 540 36,000  Level FlightAware ADS-B
Tue 12:17:33 AM 38.1790 -82.2250 252° West 468 539 36,000  Level FlightAware ADS-B
Tue 12:18:16 AM 38.1510 -82.3300 251° West 465 535 36,000  Level FlightAware ADS-B
Tue 12:18:53 AM 38.1250 -82.4310 252° West 456 525 36,000  Level FlightAware ADS-B
Tue 12:19:41 AM 38.0920 -82.5530 251° West 452 520 36,000  Level FlightAware ADS-B
Tue 12:20:20 AM 38.0670 -82.6500 252° West 449 517 36,000 -593 Level FlightAware ADS-B
Tue 12:21:02 AM 38.0390 -82.7550 251° West 453 521 35,200 -1,256 Descending FlightAware ADS-B
Tue 12:21:46 AM 38.0090 -82.8650 251° West 456 525 34,200 -1,215 Descending FlightAware ADS-B
Tue 12:22:21 AM 37.9850 -82.9560 252° West 457 526 33,600 -578 Descending FlightAware ADS-B
Tue 12:23:09 AM 37.9560 -83.0630 251° West 453 521 33,400 -143 Descending FlightAware ADS-B
Tue 12:23:45 AM 37.9350 -83.1400 251° West 453 521 33,400  Level FlightAware ADS-B
Tue 12:24:32 AM 37.9080 -83.2400 251° West 453 521 33,400  Level FlightAware ADS-B
Tue 12:25:10 AM 37.8860 -83.3210 251° West 453 521 33,400  Level FlightAware ADS-B
Tue 12:25:58 AM 37.8580 -83.4240 251° West 453 521 33,400  Level FlightAware ADS-B
Tue 12:26:32 AM 37.8380 -83.4960 251° West 453 521 33,400  Level FlightAware ADS-B
Tue 12:27:23 AM 37.8080 -83.6050 251° West 453 521 33,400  Level FlightAware ADS-B
Tue 12:28:00 AM 37.7870 -83.6840 251° West 453 521 33,400  Level FlightAware ADS-B
Tue 12:28:46 AM 37.7600 -83.7820 251° West 453 521 33,400  Level FlightAware ADS-B
Tue 12:29:22 AM 37.7390 -83.8590 251° West 453 521 33,400  Level FlightAware ADS-B
Tue 12:30:11 AM 37.7110 -83.9630 251° West 453 521 33,400  Level FlightAware ADS-B
Tue 12:30:46 AM 37.6910 -84.0370 251° West 453 521 33,400  Level FlightAware ADS-B
Tue 12:31:34 AM 37.6630 -84.1400 251° West 453 521 33,400 -7,793 Level FlightAware ADS-B
Tue 12:32:13 AM 37.6060 -84.3170 248° West 390 449 22,100 -8,163 Descending FlightAware ADS-B
Tue 12:33:00 AM 37.5900 -84.4050 257° West 389 448 21,700 -286 Descending FlightAware ADS-B
Tue 12:33:37 AM 37.5770 -84.4750 257° West 389 448 21,700  Level FlightAware ADS-B
Tue 12:34:38 AM 37.5560 -84.5890 257° West 389 448 21,700  Level FlightAware ADS-B
Tue 12:35:12 AM 37.5450 -84.6530 258° West 389 448 21,700  Level FlightAware ADS-B
Tue 12:36:00 AM 37.5280 -84.7430 257° West 389 448 21,700 -6,738 Level FlightAware ADS-B
Tue 12:37:14 AM 37.6483 -84.8964 257° West 288 331 8,000 -6,089 Descending Indianapolis Center
Tue 12:38:15 AM 37.6772 -84.9861 292° West 279 321 8,000 -98 Level Indianapolis Center
Tue 12:39:16 AM 37.7269 -85.0569 312° West 269 310 7,800 -810 Descending Indianapolis Center
Tue 12:44:33 AM 37.8970 -85.4860 312° West 218 251 2,900 -840 Descending FlightAware ADS-B
Tue 12:45:06 AM 37.8950 -85.5230 266° West 218 251 2,900  Level FlightAware ADS-B
Tue 12:46:27 AM 37.9260 -85.6190 292° West 195 224 2,900  Level FlightAware ADS-B
Tue 12:46:55 AM 37.9450 -85.6390 320° Northwest 197 227 2,900  Level FlightAware ADS-B
Tue 12:47:25 AM 37.9710 -85.6570 331° Northwest 201 231 2,900  Level FlightAware ADS-B
Tue 12:47:55 AM 37.9970 -85.6670 343° North 201 231 2,900  Level FlightAware ADS-B
Tue 12:48:20 AM 38.0190 -85.6740 346° North 200 230 2,900 -111 Level FlightAware ADS-B
Tue 12:48:49 AM 38.0450 -85.6830 345° North 192 221 2,800 -211 Descending FlightAware ADS-B
Tue 12:49:17 AM 38.0690 -85.6910 345° North 184 212 2,700 -643 Descending FlightAware ADS-B
Tue 12:49:45 AM 38.0900 -85.6980 345° North 161 185 2,200 -1,200 Descending FlightAware ADS-B
Tue 12:49:57 AM 38.0980 -85.7010 344° North 154 177 1,900 -1,385 Descending FlightAware ADS-B
Tue 12:50:24 AM 38.1180 -85.7080 345° North 157 181 1,300 -1,116 Descending FlightAware ADS-B
Tue 12:50:40 AM 38.1290 -85.7110 348° North 159 183 1,100 -783 Descending FlightAware ADS-B
Tue 12:51:10 AM 38.1500 -85.7190 343° North 155 178 700 -778 Descending FlightAware ADS-B
Tue 12:51:34 AM 38.1660 -85.7240 346° North 147 169 400 -353 Descending FlightAware ADS-B
Tue 12:52:01 AM 38.1810 -85.7290 345° North 147 169 400  Level FlightAware ADS-B
Tue 12:52:26 AM 38.1830 -85.7300 339° North 19 22 -960 Descending FlightAware ADS-B
Tue 12:52:42 AM 38.1840 -85.7310 322° Northwest 21 24  Level FlightAware ADS-B
Tue 12:53:16 AM 38.1830 -85.7330 238° Southwest 31 36  Level FlightAware ADS-B
Tue 12:55:06 AM 38.1780 -85.7360 205° Southwest 20 23  Level FlightAware ADS-B
Tue 12:55:28 AM 38.1790 -85.7390 293° West 18 21  Level FlightAware ADS-B
Tue 12:56:46 AM 38.1790 -85.7430 270° West 31 36  Level FlightAware ADS-B
Tue 12:57:15 AM 38.1760 -85.7430 180° South 19 22  Level FlightAware ADS-B
Tue 12:57:43 AM 38.1750 -85.7420 142° Southeast 24 28  Level FlightAware ADS-B
Tue 12:58:10 AM 38.1740 -85.7410 142° Southeast 22 25  Level FlightAware ADS-B

Login

Don't have an account? Register now (free) for customized features, flight alerts, and more!